createdAt,value
2022-10-08T00:02:36.327Z,9.30
2022-10-08T00:07:38.447Z,9.30
2022-10-08T00:12:40.224Z,9.20
2022-10-08T00:17:41.975Z,9.30
2022-10-08T00:22:44.031Z,9.10
2022-10-08T00:27:45.923Z,8.80
2022-10-08T00:32:48.024Z,8.70
2022-10-08T00:37:50.008Z,9.00
2022-10-08T00:42:52.884Z,8.90
2022-10-08T00:47:57.957Z,9.00
2022-10-08T00:53:02.199Z,8.90
2022-10-08T00:58:07.430Z,9.00
2022-10-08T01:03:09.209Z,8.90
2022-10-08T01:08:17.047Z,8.90
2022-10-08T01:13:37.659Z,9.00
2022-10-08T01:18:45.564Z,9.00
2022-10-08T01:23:47.272Z,8.90
2022-10-08T01:28:52.522Z,8.80
2022-10-08T01:33:59.039Z,8.90
2022-10-08T01:39:04.049Z,8.70
2022-10-08T01:44:09.226Z,8.80
2022-10-08T01:49:13.134Z,8.60
2022-10-08T01:54:16.448Z,8.70
2022-10-08T01:59:24.351Z,8.60
2022-10-08T02:04:33.220Z,8.60
2022-10-08T02:09:39.874Z,8.60
2022-10-08T02:14:43.596Z,8.60
2022-10-08T02:19:48.087Z,8.70
2022-10-08T02:24:56.124Z,8.60
2022-10-08T02:30:11.244Z,8.50
2022-10-08T02:35:19.367Z,8.20
2022-10-08T02:40:21.315Z,8.40
2022-10-08T02:45:31.350Z,8.50
2022-10-08T02:50:34.686Z,8.60
2022-10-08T02:55:51.155Z,8.20
2022-10-08T03:00:54.766Z,8.30
2022-10-08T03:05:57.161Z,8.20
2022-10-08T03:10:59.155Z,8.20
2022-10-08T03:16:01.044Z,8.40
2022-10-08T03:21:03.079Z,8.40
2022-10-08T03:26:04.908Z,8.30
2022-10-08T03:31:06.853Z,8.40
2022-10-08T03:36:08.694Z,8.50
2022-10-08T03:41:10.444Z,8.40
2022-10-08T03:46:13.509Z,8.10
2022-10-08T03:51:16.079Z,8.00
2022-10-08T03:56:19.827Z,8.10
2022-10-08T04:01:21.946Z,8.20
2022-10-08T04:06:23.990Z,8.30
2022-10-08T04:11:25.802Z,8.30
2022-10-08T04:16:27.668Z,8.40
2022-10-08T04:21:29.789Z,8.40
2022-10-08T04:26:31.718Z,8.20
2022-10-08T04:31:33.737Z,8.00
2022-10-08T04:36:35.571Z,7.90
2022-10-08T04:41:37.302Z,7.70
2022-10-08T04:46:39.066Z,7.70
2022-10-08T04:51:40.838Z,7.50
2022-10-08T04:56:42.570Z,7.40
2022-10-08T05:01:44.411Z,7.50
2022-10-08T05:06:46.174Z,7.60
2022-10-08T05:11:47.892Z,7.50
2022-10-08T05:16:49.644Z,7.70
2022-10-08T05:21:51.366Z,7.70
2022-10-08T05:26:58.495Z,7.90
2022-10-08T05:32:00.715Z,8.10
2022-10-08T05:37:02.507Z,8.20
2022-10-08T05:42:04.263Z,8.20
2022-10-08T05:47:06.015Z,8.30
2022-10-08T05:52:07.746Z,8.50
2022-10-08T05:57:09.587Z,8.60
2022-10-08T06:02:11.345Z,8.70
2022-10-08T06:07:13.066Z,9.00
2022-10-08T06:12:14.839Z,9.00
2022-10-08T06:17:16.584Z,9.20
2022-10-08T06:22:18.343Z,9.40
2022-10-08T06:27:20.058Z,9.70
2022-10-08T06:32:21.983Z,9.90
2022-10-08T06:37:23.732Z,10.00
2022-10-08T06:42:25.510Z,10.30
2022-10-08T06:47:27.247Z,10.80
2022-10-08T06:52:28.986Z,11.30
2022-10-08T06:57:30.923Z,11.50
2022-10-08T07:02:32.738Z,11.60
2022-10-08T07:07:34.526Z,11.90
2022-10-08T07:12:36.279Z,12.30
2022-10-08T07:17:38.055Z,12.40
2022-10-08T07:22:39.823Z,12.60
2022-10-08T07:27:44.852Z,13.00
2022-10-08T07:32:47.068Z,13.40
2022-10-08T07:37:48.940Z,13.70
2022-10-08T07:42:51.856Z,13.80
2022-10-08T07:47:53.635Z,13.90
2022-10-08T07:52:56.435Z,14.10
2022-10-08T07:57:58.447Z,14.30
2022-10-08T08:03:00.197Z,14.50
2022-10-08T08:08:01.962Z,14.60
2022-10-08T08:13:03.725Z,14.50
2022-10-08T08:18:05.823Z,14.50
2022-10-08T08:23:07.542Z,14.70
2022-10-08T08:28:09.390Z,14.80
2022-10-08T08:33:11.163Z,15.20
2022-10-08T08:38:12.907Z,15.60
2022-10-08T08:43:15.875Z,16.00
2022-10-08T08:48:22.851Z,16.60
2022-10-08T08:53:24.751Z,16.60
2022-10-08T08:58:44.374Z,16.80
2022-10-08T09:03:51.975Z,17.20
2022-10-08T09:08:59.371Z,18.80
2022-10-08T09:14:11.725Z,19.20
2022-10-08T09:19:13.466Z,18.90
2022-10-08T09:24:15.437Z,18.50
2022-10-08T09:29:31.293Z,18.00
2022-10-08T09:34:33.388Z,17.90
2022-10-08T09:39:37.137Z,17.90
2022-10-08T09:44:42.018Z,18.30
2022-10-08T09:49:44.944Z,19.70
2022-10-08T09:54:48.959Z,20.70
2022-10-08T09:59:53.065Z,20.50
2022-10-08T10:04:55.508Z,19.70
2022-10-08T10:09:57.788Z,19.00
2022-10-08T10:15:01.333Z,19.00
2022-10-08T10:20:05.634Z,19.10
2022-10-08T10:25:19.531Z,19.40
2022-10-08T10:30:22.617Z,19.60
2022-10-08T10:35:29.128Z,19.90
2022-10-08T10:40:32.636Z,20.00
2022-10-08T10:45:39.357Z,19.90
2022-10-08T10:50:45.602Z,20.10
2022-10-08T10:55:59.604Z,20.50
2022-10-08T11:01:01.364Z,20.70
2022-10-08T11:06:18.105Z,20.50
2022-10-08T11:11:35.459Z,20.50
2022-10-08T11:16:46.373Z,20.80
2022-10-08T11:22:03.765Z,20.50
2022-10-08T11:27:24.394Z,21.20
2022-10-08T11:32:27.129Z,21.90
2022-10-08T11:37:39.533Z,21.50
2022-10-08T11:42:48.537Z,21.10
2022-10-08T11:47:53.221Z,21.20
2022-10-08T11:53:15.324Z,21.30
2022-10-08T11:58:21.745Z,21.00
2022-10-08T12:03:27.299Z,20.80
2022-10-08T12:08:48.800Z,21.30
2022-10-08T12:14:17.011Z,21.80
2022-10-08T12:19:34.514Z,22.00
2022-10-08T12:24:39.463Z,22.60
2022-10-08T12:29:54.456Z,23.20
2022-10-08T12:34:56.808Z,22.70
2022-10-08T12:40:01.732Z,23.00
2022-10-08T12:45:12.147Z,22.10
2022-10-08T12:50:16.999Z,21.70
2022-10-08T12:55:21.102Z,20.80
2022-10-08T13:00:23.723Z,20.60
2022-10-08T13:05:31.740Z,20.50
2022-10-08T13:10:33.511Z,20.50
2022-10-08T13:15:37.696Z,20.40
2022-10-08T13:20:39.493Z,20.40
2022-10-08T13:25:41.472Z,20.20
2022-10-08T13:30:47.017Z,20.30
2022-10-08T13:35:57.399Z,20.20
2022-10-08T13:41:02.869Z,20.50
2022-10-08T13:46:04.736Z,20.40
2022-10-08T13:51:06.475Z,20.10
2022-10-08T13:56:08.402Z,20.00
2022-10-08T14:01:10.380Z,19.90
2022-10-08T14:06:12.198Z,19.60
2022-10-08T14:11:17.639Z,19.70
2022-10-08T14:32:46.575Z,19.00
2022-10-08T14:37:48.643Z,19.00
2022-10-08T14:42:51.190Z,19.00
2022-10-08T14:47:53.362Z,19.00
2022-10-08T14:52:55.236Z,18.90
2022-10-08T14:57:57.050Z,18.60
2022-10-08T15:02:59.773Z,18.30
2022-10-08T15:08:01.585Z,18.20
2022-10-08T15:13:03.467Z,18.20
2022-10-08T15:18:05.385Z,18.00
2022-10-08T15:23:09.589Z,18.00
2022-10-08T15:28:11.416Z,17.90
2022-10-08T15:33:13.251Z,17.80
2022-10-08T15:38:15.078Z,17.70
2022-10-08T15:43:16.874Z,17.60
2022-10-08T15:48:18.735Z,17.40
2022-10-08T15:53:20.546Z,17.20
2022-10-08T15:58:45.855Z,16.90
2022-10-08T16:03:46.852Z,16.60
2022-10-08T16:08:49.090Z,16.50
2022-10-08T16:13:58.276Z,16.30
2022-10-08T16:19:03.232Z,16.30
2022-10-08T16:24:05.463Z,16.00
2022-10-08T16:29:10.923Z,15.90
2022-10-08T16:34:16.487Z,15.80
2022-10-08T16:39:20.980Z,15.60
2022-10-08T16:44:22.968Z,15.50
2022-10-08T16:49:29.242Z,15.30
2022-10-08T16:54:31.738Z,15.10
2022-10-08T16:59:33.540Z,15.10
2022-10-08T17:04:39.495Z,15.10
2022-10-08T17:09:41.318Z,15.00
2022-10-08T17:14:43.168Z,15.00
2022-10-08T17:19:45.096Z,14.90
2022-10-08T17:24:47.242Z,14.80
2022-10-08T17:29:49.040Z,14.80
2022-10-08T17:34:50.857Z,14.90
2022-10-08T17:39:52.755Z,15.00
2022-10-08T17:44:54.583Z,15.00
2022-10-08T17:49:56.403Z,14.90
2022-10-08T17:54:58.231Z,14.70
2022-10-08T18:00:00.045Z,14.80
2022-10-08T18:05:01.893Z,14.80
2022-10-08T18:10:05.945Z,14.90
2022-10-08T18:15:08.478Z,14.90
2022-10-08T18:20:10.392Z,14.80
2022-10-08T18:25:12.583Z,14.60
2022-10-08T18:30:14.457Z,14.60
2022-10-08T18:35:16.316Z,14.60
2022-10-08T18:40:18.220Z,14.60
2022-10-08T18:45:19.992Z,14.50
2022-10-08T18:50:21.798Z,14.50
2022-10-08T18:55:23.609Z,14.40
2022-10-08T19:00:25.488Z,14.30
2022-10-08T19:05:27.700Z,14.20
2022-10-08T19:10:29.541Z,14.10
2022-10-08T19:15:31.404Z,14.00
2022-10-08T19:20:34.363Z,14.00
2022-10-08T19:25:36.201Z,13.90
2022-10-08T19:30:38.035Z,14.00
2022-10-08T19:35:41.749Z,14.00
2022-10-08T19:40:43.589Z,14.00
2022-10-08T19:45:45.387Z,13.90
2022-10-08T19:50:47.174Z,13.90
2022-10-08T19:55:48.986Z,13.80
2022-10-08T20:01:05.127Z,13.80
2022-10-08T20:06:10.612Z,13.70
2022-10-08T20:11:17.743Z,13.70
2022-10-08T20:16:26.193Z,13.70
2022-10-08T20:21:30.328Z,13.80
2022-10-08T20:26:34.830Z,13.80
2022-10-08T20:31:42.345Z,13.90
2022-10-08T20:36:46.066Z,14.00
2022-10-08T20:41:48.248Z,14.10
2022-10-08T20:46:50.882Z,14.20
2022-10-08T20:51:52.758Z,14.10
2022-10-08T20:56:54.607Z,14.20
2022-10-08T21:01:56.477Z,14.10
2022-10-08T21:06:58.695Z,14.10
2022-10-08T21:12:00.516Z,14.00
2022-10-08T21:17:02.397Z,14.10
2022-10-08T21:22:04.364Z,14.10
2022-10-08T21:27:06.172Z,14.00
2022-10-08T21:32:08.061Z,14.00
2022-10-08T21:37:13.720Z,14.00
2022-10-08T21:42:15.779Z,13.80
2022-10-08T21:47:17.703Z,13.80
2022-10-08T21:52:19.525Z,13.80
2022-10-08T21:57:21.327Z,13.70
2022-10-08T22:02:23.143Z,13.70
2022-10-08T22:07:25.023Z,13.70
2022-10-08T22:12:26.885Z,13.60
2022-10-08T22:17:28.699Z,13.60
2022-10-08T22:22:30.486Z,13.50
2022-10-08T22:27:32.392Z,13.50
2022-10-08T22:32:34.211Z,13.40
2022-10-08T22:37:36.036Z,13.30
2022-10-08T22:42:37.858Z,13.30
2022-10-08T22:47:39.698Z,13.30
2022-10-08T22:52:41.484Z,13.20
2022-10-08T22:57:43.923Z,13.20
2022-10-08T23:02:45.803Z,13.30
2022-10-08T23:07:47.812Z,13.30
2022-10-08T23:12:50.113Z,13.20
2022-10-08T23:17:52.166Z,13.10
2022-10-08T23:22:53.956Z,13.10
2022-10-08T23:27:55.759Z,13.20
2022-10-08T23:32:57.544Z,13.20
2022-10-08T23:37:59.351Z,13.20
2022-10-08T23:43:01.387Z,13.30
2022-10-08T23:48:03.203Z,13.20
2022-10-08T23:53:05.213Z,13.10
2022-10-08T23:58:07.005Z,13.00
